sensor_id;sensor_type;location;lat;lon;timestamp;pressure;altitude;pressure_sealevel;temperature;humidity
69570;BME280;56781;42.292;23.146;2023-08-01T00:00:53;95247.31;;;15.77;100.00
69570;BME280;56781;42.292;23.146;2023-08-01T00:03:21;95253.72;;;15.84;100.00
69570;BME280;56781;42.292;23.146;2023-08-01T00:05:48;95240.25;;;15.72;100.00
69570;BME280;56781;42.292;23.146;2023-08-01T00:08:16;95225.84;;;15.56;100.00
69570;BME280;56781;42.292;23.146;2023-08-01T00:10:43;95240.00;;;15.65;100.00
69570;BME280;56781;42.292;23.146;2023-08-01T00:13:10;95222.81;;;15.57;100.00
69570;BME280;56781;42.292;23.146;2023-08-01T00:15:38;95251.75;;;15.69;100.00
69570;BME280;56781;42.292;23.146;2023-08-01T00:18:09;95231.81;;;15.61;100.00
69570;BME280;56781;42.292;23.146;2023-08-01T00:20:36;95242.25;;;15.63;100.00
69570;BME280;56781;42.292;23.146;2023-08-01T00:23:03;95237.97;;;15.62;100.00
69570;BME280;56781;42.292;23.146;2023-08-01T00:25:33;95239.13;;;15.48;100.00
69570;BME280;56781;42.292;23.146;2023-08-01T00:28:00;95232.94;;;15.36;100.00
69570;BME280;56781;42.292;23.146;2023-08-01T00:30:28;95220.91;;;15.21;100.00
69570;BME280;56781;42.292;23.146;2023-08-01T00:32:55;95227.88;;;15.22;100.00
69570;BME280;56781;42.292;23.146;2023-08-01T00:35:22;95230.44;;;15.30;100.00
69570;BME280;56781;42.292;23.146;2023-08-01T00:37:50;95232.38;;;15.30;100.00
69570;BME280;56781;42.292;23.146;2023-08-01T00:40:17;95224.50;;;15.13;100.00
69570;BME280;56781;42.292;23.146;2023-08-01T00:42:44;95230.09;;;15.07;100.00
69570;BME280;56781;42.292;23.146;2023-08-01T00:45:11;95251.00;;;15.11;100.00
69570;BME280;56781;42.292;23.146;2023-08-01T00:47:39;95242.25;;;15.01;100.00
69570;BME280;56781;42.292;23.146;2023-08-01T00:50:07;95236.38;;;14.99;100.00
69570;BME280;56781;42.292;23.146;2023-08-01T00:52:34;95224.69;;;14.95;100.00
69570;BME280;56781;42.292;23.146;2023-08-01T00:55:02;95245.81;;;15.05;100.00
69570;BME280;56781;42.292;23.146;2023-08-01T00:57:30;95225.84;;;15.06;100.00
69570;BME280;56781;42.292;23.146;2023-08-01T00:59:57;95215.28;;;15.14;100.00
69570;BME280;56781;42.292;23.146;2023-08-01T01:02:25;95205.28;;;15.14;100.00
69570;BME280;56781;42.292;23.146;2023-08-01T01:04:54;95230.03;;;15.28;100.00
69570;BME280;56781;42.292;23.146;2023-08-01T01:07:22;95208.53;;;15.20;100.00
69570;BME280;56781;42.292;23.146;2023-08-01T01:09:50;95207.31;;;15.29;100.00
69570;BME280;56781;42.292;23.146;2023-08-01T01:12:18;95205.28;;;15.39;100.00
69570;BME280;56781;42.292;23.146;2023-08-01T01:14:45;95208.09;;;15.30;100.00
69570;BME280;56781;42.292;23.146;2023-08-01T01:17:12;95205.41;;;15.30;100.00
69570;BME280;56781;42.292;23.146;2023-08-01T01:19:39;95218.09;;;15.29;100.00
69570;BME280;56781;42.292;23.146;2023-08-01T01:22:16;95210.13;;;15.21;100.00
69570;BME280;56781;42.292;23.146;2023-08-01T01:24:45;95211.81;;;15.25;100.00
69570;BME280;56781;42.292;23.146;2023-08-01T01:27:14;95211.00;;;15.25;100.00
69570;BME280;56781;42.292;23.146;2023-08-01T01:29:44;95218.19;;;15.33;100.00
69570;BME280;56781;42.292;23.146;2023-08-01T01:32:13;95217.66;;;15.40;100.00
69570;BME280;56781;42.292;23.146;2023-08-01T01:34:40;95215.06;;;15.43;100.00
69570;BME280;56781;42.292;23.146;2023-08-01T01:37:08;95211.69;;;15.46;100.00
69570;BME280;56781;42.292;23.146;2023-08-01T01:39:35;95192.81;;;15.34;100.00
69570;BME280;56781;42.292;23.146;2023-08-01T01:42:03;95217.75;;;15.43;100.00
69570;BME280;56781;42.292;23.146;2023-08-01T01:44:30;95213.59;;;15.46;100.00
69570;BME280;56781;42.292;23.146;2023-08-01T01:46:58;95213.72;;;15.37;100.00
69570;BME280;56781;42.292;23.146;2023-08-01T01:49:25;95217.78;;;15.31;100.00
69570;BME280;56781;42.292;23.146;2023-08-01T01:51:53;95200.78;;;15.18;100.00
69570;BME280;56781;42.292;23.146;2023-08-01T01:54:20;95219.78;;;15.34;100.00
69570;BME280;56781;42.292;23.146;2023-08-01T01:56:47;95210.09;;;15.33;100.00
69570;BME280;56781;42.292;23.146;2023-08-01T01:59:14;95211.13;;;15.41;100.00
69570;BME280;56781;42.292;23.146;2023-08-01T02:01:41;95215.50;;;15.45;100.00
69570;BME280;56781;42.292;23.146;2023-08-01T02:04:09;95226.63;;;15.44;100.00
69570;BME280;56781;42.292;23.146;2023-08-01T02:06:36;95228.78;;;15.38;100.00
69570;BME280;56781;42.292;23.146;2023-08-01T02:09:03;95214.50;;;15.25;100.00
69570;BME280;56781;42.292;23.146;2023-08-01T02:11:31;95230.34;;;15.27;100.00
69570;BME280;56781;42.292;23.146;2023-08-01T02:13:58;95236.97;;;15.05;100.00
69570;BME280;56781;42.292;23.146;2023-08-01T02:16:25;95236.28;;;14.96;100.00
69570;BME280;56781;42.292;23.146;2023-08-01T02:18:53;95238.72;;;14.89;100.00
69570;BME280;56781;42.292;23.146;2023-08-01T02:21:20;95230.84;;;14.71;100.00
69570;BME280;56781;42.292;23.146;2023-08-01T02:23:47;95242.41;;;14.84;100.00
69570;BME280;56781;42.292;23.146;2023-08-01T02:26:14;95241.09;;;15.02;100.00
69570;BME280;56781;42.292;23.146;2023-08-01T02:28:41;95226.94;;;14.93;100.00
69570;BME280;56781;42.292;23.146;2023-08-01T02:31:09;95228.50;;;14.94;100.00
69570;BME280;56781;42.292;23.146;2023-08-01T02:33:36;95230.94;;;14.75;100.00
69570;BME280;56781;42.292;23.146;2023-08-01T02:36:03;95234.78;;;14.74;100.00
69570;BME280;56781;42.292;23.146;2023-08-01T02:38:31;95219.03;;;14.63;100.00
69570;BME280;56781;42.292;23.146;2023-08-01T02:40:58;95230.13;;;14.62;100.00
69570;BME280;56781;42.292;23.146;2023-08-01T02:43:25;95218.66;;;14.53;100.00
69570;BME280;56781;42.292;23.146;2023-08-01T02:45:52;95209.25;;;14.38;100.00
69570;BME280;56781;42.292;23.146;2023-08-01T02:48:19;95233.63;;;14.41;100.00
69570;BME280;56781;42.292;23.146;2023-08-01T02:50:47;95234.88;;;14.44;100.00
69570;BME280;56781;42.292;23.146;2023-08-01T02:53:14;95218.34;;;14.33;100.00
69570;BME280;56781;42.292;23.146;2023-08-01T02:55:42;95221.81;;;14.34;100.00
69570;BME280;56781;42.292;23.146;2023-08-01T02:58:10;95239.44;;;14.44;100.00
69570;BME280;56781;42.292;23.146;2023-08-01T03:00:38;95228.25;;;14.41;100.00
69570;BME280;56781;42.292;23.146;2023-08-01T03:03:07;95232.31;;;14.48;100.00
69570;BME280;56781;42.292;23.146;2023-08-01T03:05:37;95241.88;;;14.57;100.00
69570;BME280;56781;42.292;23.146;2023-08-01T03:08:05;95228.94;;;14.51;100.00
69570;BME280;56781;42.292;23.146;2023-08-01T03:10:32;95226.38;;;14.54;100.00
69570;BME280;56781;42.292;23.146;2023-08-01T03:13:02;95247.78;;;14.72;100.00
69570;BME280;56781;42.292;23.146;2023-08-01T03:15:30;95219.03;;;14.63;100.00
69570;BME280;56781;42.292;23.146;2023-08-01T03:17:57;95242.19;;;14.77;100.00
69570;BME280;56781;42.292;23.146;2023-08-01T03:20:24;95227.44;;;14.62;100.00
69570;BME280;56781;42.292;23.146;2023-08-01T03:22:51;95250.03;;;14.70;100.00
69570;BME280;56781;42.292;23.146;2023-08-01T03:25:19;95239.53;;;14.56;100.00
69570;BME280;56781;42.292;23.146;2023-08-01T03:27:46;95247.13;;;14.75;100.00
69570;BME280;56781;42.292;23.146;2023-08-01T03:30:13;95253.63;;;14.74;100.00
69570;BME280;56781;42.292;23.146;2023-08-01T03:32:41;95253.84;;;14.69;100.00
69570;BME280;56781;42.292;23.146;2023-08-01T03:35:08;95236.09;;;14.68;100.00
69570;BME280;56781;42.292;23.146;2023-08-01T03:37:35;95256.66;;;14.84;100.00
69570;BME280;56781;42.292;23.146;2023-08-01T03:40:03;95259.25;;;14.81;100.00
69570;BME280;56781;42.292;23.146;2023-08-01T03:42:30;95251.59;;;14.71;100.00
69570;BME280;56781;42.292;23.146;2023-08-01T03:44:57;95244.53;;;14.66;100.00
69570;BME280;56781;42.292;23.146;2023-08-01T03:47:24;95270.38;;;14.79;100.00
69570;BME280;56781;42.292;23.146;2023-08-01T03:49:52;95266.44;;;14.77;100.00
69570;BME280;56781;42.292;23.146;2023-08-01T03:52:19;95248.88;;;14.58;100.00
69570;BME280;56781;42.292;23.146;2023-08-01T03:54:46;95262.03;;;14.72;100.00
69570;BME280;56781;42.292;23.146;2023-08-01T03:57:13;95246.50;;;14.57;100.00
69570;BME280;56781;42.292;23.146;2023-08-01T03:59:40;95262.00;;;14.60;100.00
69570;BME280;56781;42.292;23.146;2023-08-01T04:02:08;95237.34;;;14.49;100.00
69570;BME280;56781;42.292;23.146;2023-08-01T04:04:35;95245.41;;;14.49;100.00
69570;BME280;56781;42.292;23.146;2023-08-01T04:07:02;95240.50;;;14.51;100.00
69570;BME280;56781;42.292;23.146;2023-08-01T04:09:30;95245.25;;;14.54;100.00
69570;BME280;56781;42.292;23.146;2023-08-01T04:11:57;95256.75;;;14.63;100.00
69570;BME280;56781;42.292;23.146;2023-08-01T04:14:24;95252.91;;;14.65;100.00
69570;BME280;56781;42.292;23.146;2023-08-01T04:16:51;95233.94;;;14.61;100.00
69570;BME280;56781;42.292;23.146;2023-08-01T04:19:18;95251.34;;;14.63;100.00
69570;BME280;56781;42.292;23.146;2023-08-01T04:21:46;95242.81;;;14.61;100.00
69570;BME280;56781;42.292;23.146;2023-08-01T04:24:13;95242.41;;;14.72;100.00
69570;BME280;56781;42.292;23.146;2023-08-01T04:26:40;95257.69;;;14.92;100.00
69570;BME280;56781;42.292;23.146;2023-08-01T04:29:08;95255.56;;;14.98;100.00
69570;BME280;56781;42.292;23.146;2023-08-01T04:31:35;95253.81;;;15.14;100.00
69570;BME280;56781;42.292;23.146;2023-08-01T04:34:02;95258.78;;;15.37;100.00
69570;BME280;56781;42.292;23.146;2023-08-01T04:36:30;95263.84;;;15.63;100.00
69570;BME280;56781;42.292;23.146;2023-08-01T04:38:57;95265.97;;;15.82;100.00
69570;BME280;56781;42.292;23.146;2023-08-01T04:41:24;95254.31;;;15.78;100.00
69570;BME280;56781;42.292;23.146;2023-08-01T04:43:51;95257.56;;;15.59;100.00
69570;BME280;56781;42.292;23.146;2023-08-01T04:46:18;95256.56;;;15.76;100.00
69570;BME280;56781;42.292;23.146;2023-08-01T04:48:48;95253.53;;;15.77;100.00
69570;BME280;56781;42.292;23.146;2023-08-01T04:51:15;95261.38;;;15.94;100.00
69570;BME280;56781;42.292;23.146;2023-08-01T04:53:43;95259.84;;;16.09;100.00
69570;BME280;56781;42.292;23.146;2023-08-01T04:56:10;95267.19;;;16.09;100.00
69570;BME280;56781;42.292;23.146;2023-08-01T04:58:37;95268.03;;;16.25;100.00
69570;BME280;56781;42.292;23.146;2023-08-01T05:01:04;95273.88;;;16.39;100.00
69570;BME280;56781;42.292;23.146;2023-08-01T05:03:31;95253.34;;;16.51;100.00
69570;BME280;56781;42.292;23.146;2023-08-01T05:05:59;95271.69;;;16.86;100.00
69570;BME280;56781;42.292;23.146;2023-08-01T05:08:27;95252.47;;;16.91;100.00
69570;BME280;56781;42.292;23.146;2023-08-01T05:10:54;95266.97;;;16.98;100.00
69570;BME280;56781;42.292;23.146;2023-08-01T05:13:22;95268.66;;;17.03;100.00
69570;BME280;56781;42.292;23.146;2023-08-01T05:15:49;95245.44;;;17.02;100.00
69570;BME280;56781;42.292;23.146;2023-08-01T05:18:17;95235.84;;;17.20;100.00
69570;BME280;56781;42.292;23.146;2023-08-01T05:20:44;95281.59;;;17.57;100.00
69570;BME280;56781;42.292;23.146;2023-08-01T05:23:12;95270.63;;;17.69;100.00
69570;BME280;56781;42.292;23.146;2023-08-01T05:25:39;95247.44;;;17.84;100.00
69570;BME280;56781;42.292;23.146;2023-08-01T05:28:07;95254.44;;;18.05;100.00
69570;BME280;56781;42.292;23.146;2023-08-01T05:30:34;95268.66;;;18.17;100.00
69570;BME280;56781;42.292;23.146;2023-08-01T05:33:02;95269.38;;;18.53;100.00
69570;BME280;56781;42.292;23.146;2023-08-01T05:35:29;95257.25;;;18.47;100.00
69570;BME280;56781;42.292;23.146;2023-08-01T05:37:56;95275.25;;;18.55;100.00
69570;BME280;56781;42.292;23.146;2023-08-01T05:40:23;95260.63;;;18.60;100.00
69570;BME280;56781;42.292;23.146;2023-08-01T05:42:51;95244.72;;;18.78;100.00
69570;BME280;56781;42.292;23.146;2023-08-01T05:45:21;95260.31;;;19.04;100.00
69570;BME280;56781;42.292;23.146;2023-08-01T05:47:48;95262.03;;;19.35;100.00
69570;BME280;56781;42.292;23.146;2023-08-01T05:50:18;95257.19;;;19.25;100.00
69570;BME280;56781;42.292;23.146;2023-08-01T05:52:46;95270.88;;;19.55;100.00
69570;BME280;56781;42.292;23.146;2023-08-01T05:55:13;95251.06;;;19.78;100.00
69570;BME280;56781;42.292;23.146;2023-08-01T05:57:40;95258.91;;;20.09;99.42
69570;BME280;56781;42.292;23.146;2023-08-01T06:00:08;95253.66;;;19.97;97.91
69570;BME280;56781;42.292;23.146;2023-08-01T06:02:36;95243.88;;;20.19;95.69
69570;BME280;56781;42.292;23.146;2023-08-01T06:05:03;95243.66;;;20.31;95.47
69570;BME280;56781;42.292;23.146;2023-08-01T06:07:31;95248.03;;;20.40;95.46
69570;BME280;56781;42.292;23.146;2023-08-01T06:09:58;95248.03;;;20.40;94.58
69570;BME280;56781;42.292;23.146;2023-08-01T06:12:25;95259.44;;;20.83;94.58
69570;BME280;56781;42.292;23.146;2023-08-01T06:14:53;95224.53;;;20.92;93.46
69570;BME280;56781;42.292;23.146;2023-08-01T06:17:20;95238.56;;;21.35;92.30
69570;BME280;56781;42.292;23.146;2023-08-01T06:19:47;95239.59;;;21.64;87.96
69570;BME280;56781;42.292;23.146;2023-08-01T06:22:16;95235.78;;;21.76;88.08
69570;BME280;56781;42.292;23.146;2023-08-01T06:24:43;95253.31;;;21.75;88.78
69570;BME280;56781;42.292;23.146;2023-08-01T06:27:11;95230.78;;;21.85;87.85
69570;BME280;56781;42.292;23.146;2023-08-01T06:29:38;95221.59;;;22.07;86.98
69570;BME280;56781;42.292;23.146;2023-08-01T06:32:05;95226.81;;;22.34;86.71
69570;BME280;56781;42.292;23.146;2023-08-01T06:34:33;95213.16;;;22.30;84.56
69570;BME280;56781;42.292;23.146;2023-08-01T06:37:00;95215.97;;;22.48;86.32
69570;BME280;56781;42.292;23.146;2023-08-01T06:39:27;95230.47;;;22.81;83.49
69570;BME280;56781;42.292;23.146;2023-08-01T06:41:54;95214.41;;;22.54;81.89
69570;BME280;56781;42.292;23.146;2023-08-01T06:44:22;95216.13;;;23.06;81.74
69570;BME280;56781;42.292;23.146;2023-08-01T06:46:49;95229.41;;;23.11;82.42
69570;BME280;56781;42.292;23.146;2023-08-01T06:49:16;95224.34;;;23.56;80.77
69570;BME280;56781;42.292;23.146;2023-08-01T06:51:43;95216.94;;;23.53;79.66
69570;BME280;56781;42.292;23.146;2023-08-01T06:54:10;95214.22;;;23.60;80.32
69570;BME280;56781;42.292;23.146;2023-08-01T06:56:38;95204.06;;;23.71;78.59
69570;BME280;56781;42.292;23.146;2023-08-01T06:59:05;95218.13;;;23.62;78.68
69570;BME280;56781;42.292;23.146;2023-08-01T07:01:33;95222.81;;;23.94;76.37
69570;BME280;56781;42.292;23.146;2023-08-01T07:04:01;95200.94;;;23.94;77.34
69570;BME280;56781;42.292;23.146;2023-08-01T07:06:29;95213.34;;;24.20;75.64
69570;BME280;56781;42.292;23.146;2023-08-01T07:08:56;95191.38;;;24.49;73.46
69570;BME280;56781;42.292;23.146;2023-08-01T07:11:24;95208.56;;;24.57;74.87
69570;BME280;56781;42.292;23.146;2023-08-01T07:13:51;95207.28;;;24.72;74.30
69570;BME280;56781;42.292;23.146;2023-08-01T07:16:19;95181.75;;;24.93;71.87
69570;BME280;56781;42.292;23.146;2023-08-01T07:18:46;95200.78;;;25.22;70.50
69570;BME280;56781;42.292;23.146;2023-08-01T07:21:15;95193.25;;;25.29;70.19
69570;BME280;56781;42.292;23.146;2023-08-01T07:23:43;95171.75;;;25.28;69.12
69570;BME280;56781;42.292;23.146;2023-08-01T07:26:10;95180.97;;;25.48;69.57
69570;BME280;56781;42.292;23.146;2023-08-01T07:28:38;95176.63;;;25.54;67.23
69570;BME280;56781;42.292;23.146;2023-08-01T07:31:06;95182.97;;;25.89;67.14
69570;BME280;56781;42.292;23.146;2023-08-01T07:33:34;95187.13;;;26.04;65.78
69570;BME280;56781;42.292;23.146;2023-08-01T07:36:02;95191.06;;;26.03;63.50
69570;BME280;56781;42.292;23.146;2023-08-01T07:38:30;95177.41;;;25.55;66.45
69570;BME280;56781;42.292;23.146;2023-08-01T07:41:04;95189.69;;;26.22;65.52
69570;BME280;56781;42.292;23.146;2023-08-01T07:43:32;95161.63;;;26.38;61.97
69570;BME280;56781;42.292;23.146;2023-08-01T07:45:59;95155.56;;;26.23;62.29
69570;BME280;56781;42.292;23.146;2023-08-01T07:48:27;95175.91;;;26.26;64.05
69570;BME280;56781;42.292;23.146;2023-08-01T07:50:55;95171.00;;;26.44;63.23
69570;BME280;56781;42.292;23.146;2023-08-01T07:53:22;95157.84;;;26.63;63.75
69570;BME280;56781;42.292;23.146;2023-08-01T07:55:51;95149.25;;;26.61;63.99
69570;BME280;56781;42.292;23.146;2023-08-01T07:58:19;95145.97;;;26.96;62.92
69570;BME280;56781;42.292;23.146;2023-08-01T08:00:46;95163.44;;;27.10;60.80
69570;BME280;56781;42.292;23.146;2023-08-01T08:03:15;95159.03;;;27.16;62.09
69570;BME280;56781;42.292;23.146;2023-08-01T08:05:42;95174.19;;;27.51;63.29
69570;BME280;56781;42.292;23.146;2023-08-01T08:08:10;95154.91;;;27.31;57.60
69570;BME280;56781;42.292;23.146;2023-08-01T08:10:37;95148.25;;;27.02;57.75
69570;BME280;56781;42.292;23.146;2023-08-01T08:13:08;95160.38;;;27.78;56.60
69570;BME280;56781;42.292;23.146;2023-08-01T08:15:36;95139.59;;;27.54;56.49
69570;BME280;56781;42.292;23.146;2023-08-01T08:18:03;95142.69;;;27.05;59.02
69570;BME280;56781;42.292;23.146;2023-08-01T08:20:40;95132.06;;;27.34;58.11
69570;BME280;56781;42.292;23.146;2023-08-01T08:23:07;95146.63;;;27.78;53.48
69570;BME280;56781;42.292;23.146;2023-08-01T08:25:34;95133.69;;;27.32;56.38
69570;BME280;56781;42.292;23.146;2023-08-01T08:28:02;95139.19;;;27.55;55.05
69570;BME280;56781;42.292;23.146;2023-08-01T08:30:30;95144.38;;;27.50;54.45
69570;BME280;56781;42.292;23.146;2023-08-01T08:32:58;95141.78;;;27.62;54.97
69570;BME280;56781;42.292;23.146;2023-08-01T08:35:31;95124.16;;;27.83;55.95
69570;BME280;56781;42.292;23.146;2023-08-01T08:38:01;95128.03;;;28.06;53.67
69570;BME280;56781;42.292;23.146;2023-08-01T08:40:28;95114.28;;;27.86;56.55
69570;BME280;56781;42.292;23.146;2023-08-01T08:43:00;95117.38;;;28.08;56.67
69570;BME280;56781;42.292;23.146;2023-08-01T08:45:29;95106.66;;;28.14;54.54
69570;BME280;56781;42.292;23.146;2023-08-01T08:48:02;95104.06;;;27.63;53.39
69570;BME280;56781;42.292;23.146;2023-08-01T08:50:33;95117.38;;;28.08;55.01
69570;BME280;56781;42.292;23.146;2023-08-01T08:53:02;95109.25;;;27.81;54.39
69570;BME280;56781;42.292;23.146;2023-08-01T08:55:31;95108.94;;;27.75;54.03
69570;BME280;56781;42.292;23.146;2023-08-01T08:57:59;95111.94;;;27.84;54.29
69570;BME280;56781;42.292;23.146;2023-08-01T09:00:27;95110.56;;;27.96;53.50
69570;BME280;56781;42.292;23.146;2023-08-01T09:02:54;95104.84;;;28.07;51.88
69570;BME280;56781;42.292;23.146;2023-08-01T09:05:27;95095.19;;;27.75;52.27
69570;BME280;56781;42.292;23.146;2023-08-01T09:07:56;95074.69;;;28.00;55.06
69570;BME280;56781;42.292;23.146;2023-08-01T09:10:25;95108.94;;;28.55;52.91
69570;BME280;56781;42.292;23.146;2023-08-01T09:12:52;95075.06;;;28.38;51.91
69570;BME280;56781;42.292;23.146;2023-08-01T09:15:20;95076.47;;;28.10;53.38
69570;BME280;56781;42.292;23.146;2023-08-01T09:17:51;95079.38;;;27.79;51.23
69570;BME280;56781;42.292;23.146;2023-08-01T09:20:18;95076.69;;;27.99;53.10
69570;BME280;56781;42.292;23.146;2023-08-01T09:22:47;95064.19;;;27.95;50.64
69570;BME280;56781;42.292;23.146;2023-08-01T09:25:14;95069.16;;;28.20;52.30
69570;BME280;56781;42.292;23.146;2023-08-01T09:27:41;95071.09;;;28.03;53.03
69570;BME280;56781;42.292;23.146;2023-08-01T09:30:11;95046.75;;;27.81;51.04
69570;BME280;56781;42.292;23.146;2023-08-01T09:32:40;95058.00;;;27.91;51.91
69570;BME280;56781;42.292;23.146;2023-08-01T09:35:08;95059.41;;;27.99;48.59
69570;BME280;56781;42.292;23.146;2023-08-01T09:37:42;95039.31;;;28.18;49.08
69570;BME280;56781;42.292;23.146;2023-08-01T09:40:10;95058.38;;;28.29;48.23
69570;BME280;56781;42.292;23.146;2023-08-01T09:42:39;95051.13;;;28.71;50.37
69570;BME280;56781;42.292;23.146;2023-08-01T09:45:14;95046.06;;;28.70;50.25
69570;BME280;56781;42.292;23.146;2023-08-01T09:47:42;95026.78;;;28.34;49.36
69570;BME280;56781;42.292;23.146;2023-08-01T09:50:21;95024.81;;;28.34;47.02
69570;BME280;56781;42.292;23.146;2023-08-01T09:52:48;95009.91;;;28.68;47.09
69570;BME280;56781;42.292;23.146;2023-08-01T09:55:31;95008.78;;;28.82;48.45
69570;BME280;56781;42.292;23.146;2023-08-01T09:58:00;95010.50;;;28.92;44.21
69570;BME280;56781;42.292;23.146;2023-08-01T10:00:29;95017.66;;;29.06;43.60
69570;BME280;56781;42.292;23.146;2023-08-01T10:02:58;95023.75;;;29.30;45.62
69570;BME280;56781;42.292;23.146;2023-08-01T10:05:29;95027.75;;;29.42;45.06
69570;BME280;56781;42.292;23.146;2023-08-01T10:07:59;95008.69;;;29.47;42.41
69570;BME280;56781;42.292;23.146;2023-08-01T10:10:28;94995.94;;;29.24;39.70
69570;BME280;56781;42.292;23.146;2023-08-01T10:12:58;94997.66;;;29.02;38.31
69570;BME280;56781;42.292;23.146;2023-08-01T10:15:28;94998.44;;;29.19;41.76
69570;BME280;56781;42.292;23.146;2023-08-01T10:17:57;94999.06;;;28.93;40.34
69570;BME280;56781;42.292;23.146;2023-08-01T10:20:25;94998.25;;;29.09;42.25
69570;BME280;56781;42.292;23.146;2023-08-01T10:22:53;94989.81;;;29.16;39.17
69570;BME280;56781;42.292;23.146;2023-08-01T10:25:21;94992.56;;;29.00;37.26
69570;BME280;56781;42.292;23.146;2023-08-01T10:28:02;94986.72;;;28.98;37.07
69570;BME280;56781;42.292;23.146;2023-08-01T10:30:30;94991.34;;;29.17;35.50
69570;BME280;56781;42.292;23.146;2023-08-01T10:32:59;94973.13;;;29.07;35.02
69570;BME280;56781;42.292;23.146;2023-08-01T10:35:37;94968.66;;;29.43;33.66
69570;BME280;56781;42.292;23.146;2023-08-01T10:38:11;94956.06;;;29.42;34.49
69570;BME280;56781;42.292;23.146;2023-08-01T10:40:43;94957.97;;;29.57;31.48
69570;BME280;56781;42.292;23.146;2023-08-01T10:43:22;94952.28;;;29.65;30.24
69570;BME280;56781;42.292;23.146;2023-08-01T10:46:03;94966.13;;;29.90;30.80
69570;BME280;56781;42.292;23.146;2023-08-01T10:48:31;94955.16;;;29.74;29.77
69570;BME280;56781;42.292;23.146;2023-08-01T10:50:58;94952.22;;;29.81;30.41
69570;BME280;56781;42.292;23.146;2023-08-01T10:53:26;94952.28;;;29.65;27.68
69570;BME280;56781;42.292;23.146;2023-08-01T10:56:15;94947.94;;;29.51;29.90
69570;BME280;56781;42.292;23.146;2023-08-01T10:58:43;94937.78;;;29.48;28.25
69570;BME280;56781;42.292;23.146;2023-08-01T11:01:10;94945.13;;;29.67;27.46
69570;BME280;56781;42.292;23.146;2023-08-01T11:03:39;94937.97;;;29.70;28.17
69570;BME280;56781;42.292;23.146;2023-08-01T11:06:07;94936.84;;;29.80;25.28
69570;BME280;56781;42.292;23.146;2023-08-01T11:08:38;94937.78;;;30.02;28.22
69570;BME280;56781;42.292;23.146;2023-08-01T11:11:08;94927.38;;;30.07;28.22
69570;BME280;56781;42.292;23.146;2023-08-01T11:13:40;94921.31;;;30.12;29.18
69570;BME280;56781;42.292;23.146;2023-08-01T11:16:11;94923.63;;;30.00;30.65
69570;BME280;56781;42.292;23.146;2023-08-01T11:18:42;94919.22;;;29.90;29.54
69570;BME280;56781;42.292;23.146;2023-08-01T11:21:10;94901.75;;;29.93;28.35
69570;BME280;56781;42.292;23.146;2023-08-01T11:23:38;94908.06;;;30.07;31.11
69570;BME280;56781;42.292;23.146;2023-08-01T11:26:09;94913.47;;;29.97;33.02
69570;BME280;56781;42.292;23.146;2023-08-01T11:28:36;94903.81;;;29.51;35.15
69570;BME280;56781;42.292;23.146;2023-08-01T11:31:11;94921.19;;;29.77;36.47
69570;BME280;56781;42.292;23.146;2023-08-01T11:33:39;94899.41;;;29.53;35.70
69570;BME280;56781;42.292;23.146;2023-08-01T11:36:08;94913.69;;;29.90;33.08
69570;BME280;56781;42.292;23.146;2023-08-01T11:38:36;94900.78;;;30.00;32.85
69570;BME280;56781;42.292;23.146;2023-08-01T11:41:05;94911.84;;;30.25;33.90
69570;BME280;56781;42.292;23.146;2023-08-01T11:43:40;94908.72;;;30.49;32.09
69570;BME280;56781;42.292;23.146;2023-08-01T11:46:10;94892.38;;;30.42;33.56
69570;BME280;56781;42.292;23.146;2023-08-01T11:48:38;94900.88;;;30.47;33.55
69570;BME280;56781;42.292;23.146;2023-08-01T11:51:06;94894.84;;;30.27;33.62
69570;BME280;56781;42.292;23.146;2023-08-01T11:53:33;94878.34;;;30.36;34.52
69570;BME280;56781;42.292;23.146;2023-08-01T11:56:06;94885.94;;;30.45;37.91
69570;BME280;56781;42.292;23.146;2023-08-01T11:58:35;94883.31;;;30.41;33.62
69570;BME280;56781;42.292;23.146;2023-08-01T12:01:10;94893.38;;;30.35;34.13
69570;BME280;56781;42.292;23.146;2023-08-01T12:03:46;94885.31;;;30.41;33.03
69570;BME280;56781;42.292;23.146;2023-08-01T12:06:14;94857.34;;;30.39;31.26
69570;BME280;56781;42.292;23.146;2023-08-01T12:08:43;94864.78;;;30.64;30.06
69570;BME280;56781;42.292;23.146;2023-08-01T12:11:26;94875.22;;;30.60;35.02
69570;BME280;56781;42.292;23.146;2023-08-01T12:14:02;94856.78;;;30.44;30.58
69570;BME280;56781;42.292;23.146;2023-08-01T12:16:29;94866.31;;;30.43;34.08
69570;BME280;56781;42.292;23.146;2023-08-01T12:18:57;94859.88;;;30.46;31.52
69570;BME280;56781;42.292;23.146;2023-08-01T12:21:28;94852.56;;;30.52;32.42
69570;BME280;56781;42.292;23.146;2023-08-01T12:23:55;94856.28;;;30.71;32.11
69570;BME280;56781;42.292;23.146;2023-08-01T12:26:22;94852.78;;;30.92;31.94
69570;BME280;56781;42.292;23.146;2023-08-01T12:28:50;94855.56;;;30.92;30.73
69570;BME280;56781;42.292;23.146;2023-08-01T12:31:18;94841.69;;;30.70;30.60
69570;BME280;56781;42.292;23.146;2023-08-01T12:33:46;94842.44;;;30.71;30.49
69570;BME280;56781;42.292;23.146;2023-08-01T12:36:14;94831.38;;;30.84;31.82
69570;BME280;56781;42.292;23.146;2023-08-01T12:38:41;94843.53;;;30.86;31.18
69570;BME280;56781;42.292;23.146;2023-08-01T12:41:09;94830.63;;;30.70;31.34
69570;BME280;56781;42.292;23.146;2023-08-01T12:43:37;94831.34;;;30.62;30.65
69570;BME280;56781;42.292;23.146;2023-08-01T12:46:04;94831.41;;;30.71;29.26
69570;BME280;56781;42.292;23.146;2023-08-01T12:48:31;94835.88;;;30.56;30.37
69570;BME280;56781;42.292;23.146;2023-08-01T12:50:58;94822.56;;;30.63;32.15